Other Surface Observations
Issued by NWS Great Falls, MT

Home | Current Version | Previous Version | Text Only | Print | Product List | Glossary On
Versions: 1 2 3 4 5 6 7 8 9 10 11 12 13 14 15 16 17 18 19 20 21 22 23 24 25 26 27 28 29 30 31 32 33 34 35 36 37 38 39 40 41 42 43 44 45 46 47 48 49 50
000
SXUS55 KTFX 280553
OSOTFX
AREA AWOS OBSERVATIONS
NATIONAL WEATHER SERVICE GREAT FALLS MT
1050 PM MST THU NOV 27 2014

METAR KPWD 280545Z AUTO 6SM M09/M11 A2978 RMK PLENTYWOOD
METAR KPO1 280545Z AUTO 7SM M08/M10 A2975 RMK POPLAR
METAR K1S3 280545Z AUTO 23008KT 10SM 12/M01 A2970 RMK FORSYTH
METAR KS71 280545Z AUTO 00000KT 3/4SM M02/M02 A2969 RMK CHINOOK
METAR K6S0 280545Z AUTO 23031G38KT 10SM 11/00 A2972 RMK BIG TIMBER
METAR K79S 280545Z AUTO 00000KT 10SM 08/02 A2965 RMK FORT BENTON
METAR KEKS 280545Z AUTO 10SM RMK ENNIS
METAR K38S 280545Z AUTO 15018G22KT 10SM 07/02 A2985 RMK DEER LODGE
METAR K6S5 280545Z AUTO 18009KT 10SM 10/02 A2985 RMK HAMILTON
METAR KS59 280545Z AUTO 31003KT 10SM 06/04 A2969 RMK LIBBY
METAR K88M 280545Z AUTO 13010G21KT 10SM 11/04 A2966 RMK EUREKA



USA.gov is the U.S. government's official web portal to all federal, state and local government web resources and services.